sensor_id;sensor_type;location;lat;lon;timestamp;P1;durP1;ratioP1;P2;durP2;ratioP2
18084;SDS011;9169;44.492;11.372;2023-02-01T00:01:45;10.77;;;6.17;;
18084;SDS011;9169;44.492;11.372;2023-02-01T00:04:15;6.63;;;4.40;;
18084;SDS011;9169;44.492;11.372;2023-02-01T00:06:43;8.10;;;4.90;;
18084;SDS011;9169;44.492;11.372;2023-02-01T00:09:12;6.23;;;3.80;;
18084;SDS011;9169;44.492;11.372;2023-02-01T00:11:41;9.17;;;5.40;;
18084;SDS011;9169;44.492;11.372;2023-02-01T00:14:09;6.60;;;3.30;;
18084;SDS011;9169;44.492;11.372;2023-02-01T00:16:38;8.07;;;4.00;;
18084;SDS011;9169;44.492;11.372;2023-02-01T00:19:10;6.97;;;3.70;;
18084;SDS011;9169;44.492;11.372;2023-02-01T00:21:42;7.13;;;3.60;;
18084;SDS011;9169;44.492;11.372;2023-02-01T00:24:12;5.10;;;3.80;;
18084;SDS011;9169;44.492;11.372;2023-02-01T00:26:41;6.13;;;3.70;;
18084;SDS011;9169;44.492;11.372;2023-02-01T00:29:12;10.40;;;5.00;;
18084;SDS011;9169;44.492;11.372;2023-02-01T00:31:43;8.57;;;4.80;;
18084;SDS011;9169;44.492;11.372;2023-02-01T00:34:12;8.93;;;4.87;;
18084;SDS011;9169;44.492;11.372;2023-02-01T00:36:44;10.57;;;4.30;;
18084;SDS011;9169;44.492;11.372;2023-02-01T00:39:13;7.57;;;4.50;;
18084;SDS011;9169;44.492;11.372;2023-02-01T00:41:42;10.03;;;4.40;;
18084;SDS011;9169;44.492;11.372;2023-02-01T00:44:10;10.57;;;4.30;;
18084;SDS011;9169;44.492;11.372;2023-02-01T00:46:39;7.10;;;4.03;;
18084;SDS011;9169;44.492;11.372;2023-02-01T00:49:07;8.03;;;3.80;;
18084;SDS011;9169;44.492;11.372;2023-02-01T00:51:36;8.00;;;4.23;;
18084;SDS011;9169;44.492;11.372;2023-02-01T00:54:06;8.00;;;4.40;;
18084;SDS011;9169;44.492;11.372;2023-02-01T00:56:34;9.07;;;4.10;;
18084;SDS011;9169;44.492;11.372;2023-02-01T00:59:03;7.57;;;4.80;;
18084;SDS011;9169;44.492;11.372;2023-02-01T01:01:31;6.23;;;3.87;;
18084;SDS011;9169;44.492;11.372;2023-02-01T01:04:00;8.27;;;3.93;;
18084;SDS011;9169;44.492;11.372;2023-02-01T01:06:29;6.80;;;3.87;;
18084;SDS011;9169;44.492;11.372;2023-02-01T01:09:00;8.47;;;4.17;;
18084;SDS011;9169;44.492;11.372;2023-02-01T01:11:33;7.33;;;4.00;;
18084;SDS011;9169;44.492;11.372;2023-02-01T01:14:05;4.97;;;3.70;;
18084;SDS011;9169;44.492;11.372;2023-02-01T01:16:35;10.03;;;4.17;;
18084;SDS011;9169;44.492;11.372;2023-02-01T01:19:03;6.10;;;3.90;;
18084;SDS011;9169;44.492;11.372;2023-02-01T01:21:32;6.33;;;3.90;;
18084;SDS011;9169;44.492;11.372;2023-02-01T01:24:00;9.07;;;4.33;;
18084;SDS011;9169;44.492;11.372;2023-02-01T01:26:33;9.47;;;3.93;;
18084;SDS011;9169;44.492;11.372;2023-02-01T01:29:02;8.10;;;4.70;;
18084;SDS011;9169;44.492;11.372;2023-02-01T01:31:31;9.83;;;4.40;;
18084;SDS011;9169;44.492;11.372;2023-02-01T01:34:00;12.10;;;4.17;;
18084;SDS011;9169;44.492;11.372;2023-02-01T01:36:29;6.90;;;4.50;;
18084;SDS011;9169;44.492;11.372;2023-02-01T01:38:57;10.03;;;4.10;;
18084;SDS011;9169;44.492;11.372;2023-02-01T01:41:28;8.20;;;4.50;;
18084;SDS011;9169;44.492;11.372;2023-02-01T01:47:20;7.87;;;3.90;;
18084;SDS011;9169;44.492;11.372;2023-02-01T01:49:48;5.33;;;3.70;;
18084;SDS011;9169;44.492;11.372;2023-02-01T01:52:18;6.10;;;4.17;;
18084;SDS011;9169;44.492;11.372;2023-02-01T01:54:48;6.03;;;3.83;;
18084;SDS011;9169;44.492;11.372;2023-02-01T01:57:20;7.80;;;3.93;;
18084;SDS011;9169;44.492;11.372;2023-02-01T01:59:54;7.13;;;3.80;;
18084;SDS011;9169;44.492;11.372;2023-02-01T02:02:40;11.07;;;3.43;;
18084;SDS011;9169;44.492;11.372;2023-02-01T02:05:10;8.87;;;4.10;;
18084;SDS011;9169;44.492;11.372;2023-02-01T02:07:41;6.70;;;3.90;;
18084;SDS011;9169;44.492;11.372;2023-02-01T02:10:14;9.47;;;3.67;;
18084;SDS011;9169;44.492;11.372;2023-02-01T02:12:43;4.87;;;3.33;;
18084;SDS011;9169;44.492;11.372;2023-02-01T02:15:15;6.70;;;4.10;;
18084;SDS011;9169;44.492;11.372;2023-02-01T02:17:52;8.00;;;3.90;;
18084;SDS011;9169;44.492;11.372;2023-02-01T02:20:32;9.00;;;3.90;;
18084;SDS011;9169;44.492;11.372;2023-02-01T02:23:24;11.60;;;4.13;;
18084;SDS011;9169;44.492;11.372;2023-02-01T02:26:26;6.70;;;3.80;;
18084;SDS011;9169;44.492;11.372;2023-02-01T02:29:23;6.80;;;3.67;;
18084;SDS011;9169;44.492;11.372;2023-02-01T02:32:22;7.17;;;4.40;;
18084;SDS011;9169;44.492;11.372;2023-02-01T02:35:14;8.50;;;4.33;;
18084;SDS011;9169;44.492;11.372;2023-02-01T02:37:52;8.17;;;3.93;;
18084;SDS011;9169;44.492;11.372;2023-02-01T02:40:25;8.57;;;4.50;;
18084;SDS011;9169;44.492;11.372;2023-02-01T02:43:01;9.33;;;4.47;;
18084;SDS011;9169;44.492;11.372;2023-02-01T02:45:57;9.00;;;4.40;;
18084;SDS011;9169;44.492;11.372;2023-02-01T02:48:58;8.90;;;4.50;;
18084;SDS011;9169;44.492;11.372;2023-02-01T02:51:34;6.60;;;4.00;;
18084;SDS011;9169;44.492;11.372;2023-02-01T02:54:28;9.17;;;4.00;;
18084;SDS011;9169;44.492;11.372;2023-02-01T02:57:18;9.30;;;4.80;;
18084;SDS011;9169;44.492;11.372;2023-02-01T03:00:09;12.27;;;4.70;;
18084;SDS011;9169;44.492;11.372;2023-02-01T03:02:58;12.20;;;4.53;;
18084;SDS011;9169;44.492;11.372;2023-02-01T03:05:44;7.67;;;4.50;;
18084;SDS011;9169;44.492;11.372;2023-02-01T03:08:20;8.70;;;4.67;;
18084;SDS011;9169;44.492;11.372;2023-02-01T03:10:52;7.10;;;4.43;;
18084;SDS011;9169;44.492;11.372;2023-02-01T03:13:30;8.67;;;4.47;;
18084;SDS011;9169;44.492;11.372;2023-02-01T03:16:04;8.00;;;4.53;;
18084;SDS011;9169;44.492;11.372;2023-02-01T03:18:42;7.43;;;4.10;;
18084;SDS011;9169;44.492;11.372;2023-02-01T03:21:18;10.20;;;4.73;;
18084;SDS011;9169;44.492;11.372;2023-02-01T03:23:53;12.07;;;4.50;;
18084;SDS011;9169;44.492;11.372;2023-02-01T03:26:25;8.97;;;4.50;;
18084;SDS011;9169;44.492;11.372;2023-02-01T03:29:01;8.53;;;4.93;;
18084;SDS011;9169;44.492;11.372;2023-02-01T03:31:33;6.23;;;4.30;;
18084;SDS011;9169;44.492;11.372;2023-02-01T03:34:02;6.40;;;4.13;;
18084;SDS011;9169;44.492;11.372;2023-02-01T03:36:33;7.83;;;5.03;;
18084;SDS011;9169;44.492;11.372;2023-02-01T03:39:07;9.83;;;4.40;;
18084;SDS011;9169;44.492;11.372;2023-02-01T03:41:43;11.80;;;5.17;;
18084;SDS011;9169;44.492;11.372;2023-02-01T03:44:17;7.83;;;4.67;;
18084;SDS011;9169;44.492;11.372;2023-02-01T03:46:51;7.67;;;3.80;;
18084;SDS011;9169;44.492;11.372;2023-02-01T03:49:23;8.37;;;4.03;;
18084;SDS011;9169;44.492;11.372;2023-02-01T03:51:56;10.37;;;4.70;;
18084;SDS011;9169;44.492;11.372;2023-02-01T03:54:28;7.07;;;4.00;;
18084;SDS011;9169;44.492;11.372;2023-02-01T03:56:59;10.37;;;4.90;;
18084;SDS011;9169;44.492;11.372;2023-02-01T03:59:30;7.57;;;4.30;;
18084;SDS011;9169;44.492;11.372;2023-02-01T04:01:59;14.33;;;5.57;;
18084;SDS011;9169;44.492;11.372;2023-02-01T04:04:28;8.03;;;4.97;;
18084;SDS011;9169;44.492;11.372;2023-02-01T04:06:56;10.90;;;5.27;;
18084;SDS011;9169;44.492;11.372;2023-02-01T04:09:25;10.03;;;5.10;;
18084;SDS011;9169;44.492;11.372;2023-02-01T04:11:55;6.80;;;4.50;;
18084;SDS011;9169;44.492;11.372;2023-02-01T04:14:23;10.80;;;4.60;;
18084;SDS011;9169;44.492;11.372;2023-02-01T04:16:52;10.30;;;5.50;;
18084;SDS011;9169;44.492;11.372;2023-02-01T04:19:21;9.90;;;4.93;;
18084;SDS011;9169;44.492;11.372;2023-02-01T04:21:49;9.30;;;4.87;;
18084;SDS011;9169;44.492;11.372;2023-02-01T04:24:18;10.10;;;4.83;;
18084;SDS011;9169;44.492;11.372;2023-02-01T04:26:46;9.73;;;5.00;;
18084;SDS011;9169;44.492;11.372;2023-02-01T04:29:16;10.00;;;4.77;;
18084;SDS011;9169;44.492;11.372;2023-02-01T04:31:45;9.83;;;4.73;;
18084;SDS011;9169;44.492;11.372;2023-02-01T04:34:14;8.77;;;5.00;;
18084;SDS011;9169;44.492;11.372;2023-02-01T04:36:42;9.50;;;5.37;;
18084;SDS011;9169;44.492;11.372;2023-02-01T04:39:13;9.93;;;5.27;;
18084;SDS011;9169;44.492;11.372;2023-02-01T04:41:41;11.30;;;5.53;;
18084;SDS011;9169;44.492;11.372;2023-02-01T04:44:10;8.03;;;5.03;;
18084;SDS011;9169;44.492;11.372;2023-02-01T04:46:44;9.13;;;5.00;;
18084;SDS011;9169;44.492;11.372;2023-02-01T04:49:14;9.47;;;4.90;;
18084;SDS011;9169;44.492;11.372;2023-02-01T04:51:43;13.83;;;5.50;;
18084;SDS011;9169;44.492;11.372;2023-02-01T04:54:12;13.60;;;5.70;;
18084;SDS011;9169;44.492;11.372;2023-02-01T04:56:40;9.60;;;5.77;;
18084;SDS011;9169;44.492;11.372;2023-02-01T04:59:09;11.90;;;5.33;;
18084;SDS011;9169;44.492;11.372;2023-02-01T05:01:38;8.30;;;5.07;;
18084;SDS011;9169;44.492;11.372;2023-02-01T05:04:09;12.60;;;5.53;;
18084;SDS011;9169;44.492;11.372;2023-02-01T05:06:37;10.03;;;5.00;;
18084;SDS011;9169;44.492;11.372;2023-02-01T05:09:06;10.93;;;5.00;;
18084;SDS011;9169;44.492;11.372;2023-02-01T05:11:34;9.30;;;5.10;;
18084;SDS011;9169;44.492;11.372;2023-02-01T05:14:20;16.27;;;6.20;;
18084;SDS011;9169;44.492;11.372;2023-02-01T05:16:49;18.60;;;5.80;;
18084;SDS011;9169;44.492;11.372;2023-02-01T05:19:19;16.20;;;6.43;;
18084;SDS011;9169;44.492;11.372;2023-02-01T05:21:47;13.77;;;6.27;;
18084;SDS011;9169;44.492;11.372;2023-02-01T05:24:16;12.50;;;6.40;;
18084;SDS011;9169;44.492;11.372;2023-02-01T05:26:47;13.67;;;6.00;;
18084;SDS011;9169;44.492;11.372;2023-02-01T05:29:16;12.40;;;5.97;;
18084;SDS011;9169;44.492;11.372;2023-02-01T05:31:45;11.00;;;5.50;;
18084;SDS011;9169;44.492;11.372;2023-02-01T05:34:15;11.03;;;6.30;;
18084;SDS011;9169;44.492;11.372;2023-02-01T05:36:45;10.10;;;5.83;;
18084;SDS011;9169;44.492;11.372;2023-02-01T05:39:13;17.33;;;6.27;;
18084;SDS011;9169;44.492;11.372;2023-02-01T05:41:42;10.20;;;5.87;;
18084;SDS011;9169;44.492;11.372;2023-02-01T05:44:10;15.30;;;5.80;;
18084;SDS011;9169;44.492;11.372;2023-02-01T05:46:39;13.63;;;6.40;;
18084;SDS011;9169;44.492;11.372;2023-02-01T05:49:08;10.53;;;5.70;;
18084;SDS011;9169;44.492;11.372;2023-02-01T05:51:37;14.77;;;6.70;;
18084;SDS011;9169;44.492;11.372;2023-02-01T05:54:07;12.37;;;6.70;;
18084;SDS011;9169;44.492;11.372;2023-02-01T05:56:36;11.30;;;6.20;;
18084;SDS011;9169;44.492;11.372;2023-02-01T05:59:05;14.43;;;5.87;;
18084;SDS011;9169;44.492;11.372;2023-02-01T06:01:33;14.63;;;5.80;;
18084;SDS011;9169;44.492;11.372;2023-02-01T06:04:02;11.70;;;5.70;;
18084;SDS011;9169;44.492;11.372;2023-02-01T06:06:31;13.53;;;6.37;;
18084;SDS011;9169;44.492;11.372;2023-02-01T06:09:00;10.37;;;6.00;;
18084;SDS011;9169;44.492;11.372;2023-02-01T06:11:29;9.87;;;5.77;;
18084;SDS011;9169;44.492;11.372;2023-02-01T06:13:59;15.53;;;6.70;;
18084;SDS011;9169;44.492;11.372;2023-02-01T06:16:27;10.90;;;6.03;;
18084;SDS011;9169;44.492;11.372;2023-02-01T06:18:56;8.47;;;5.10;;
18084;SDS011;9169;44.492;11.372;2023-02-01T06:21:25;16.90;;;5.43;;
18084;SDS011;9169;44.492;11.372;2023-02-01T06:23:54;7.50;;;4.77;;
18084;SDS011;9169;44.492;11.372;2023-02-01T06:26:24;9.93;;;4.60;;
18084;SDS011;9169;44.492;11.372;2023-02-01T06:28:54;10.90;;;4.93;;
18084;SDS011;9169;44.492;11.372;2023-02-01T06:31:23;10.10;;;4.17;;
18084;SDS011;9169;44.492;11.372;2023-02-01T06:33:52;10.00;;;4.10;;
18084;SDS011;9169;44.492;11.372;2023-02-01T06:36:21;11.13;;;4.37;;
18084;SDS011;9169;44.492;11.372;2023-02-01T06:38:49;9.13;;;4.80;;
18084;SDS011;9169;44.492;11.372;2023-02-01T06:41:18;17.07;;;5.13;;
18084;SDS011;9169;44.492;11.372;2023-02-01T06:43:48;9.30;;;4.70;;
18084;SDS011;9169;44.492;11.372;2023-02-01T06:46:18;11.17;;;4.40;;
18084;SDS011;9169;44.492;11.372;2023-02-01T06:48:46;8.50;;;4.40;;
18084;SDS011;9169;44.492;11.372;2023-02-01T06:51:20;8.07;;;4.80;;
18084;SDS011;9169;44.492;11.372;2023-02-01T06:53:50;11.30;;;4.87;;
18084;SDS011;9169;44.492;11.372;2023-02-01T06:56:19;12.20;;;7.00;;
18084;SDS011;9169;44.492;11.372;2023-02-01T06:58:47;9.53;;;4.87;;
18084;SDS011;9169;44.492;11.372;2023-02-01T07:01:18;12.10;;;4.83;;
18084;SDS011;9169;44.492;11.372;2023-02-01T07:03:47;8.20;;;4.30;;
18084;SDS011;9169;44.492;11.372;2023-02-01T07:06:17;10.53;;;4.70;;
18084;SDS011;9169;44.492;11.372;2023-02-01T07:08:46;11.97;;;4.90;;
18084;SDS011;9169;44.492;11.372;2023-02-01T07:11:15;12.87;;;4.97;;
18084;SDS011;9169;44.492;11.372;2023-02-01T07:13:47;11.77;;;4.83;;
18084;SDS011;9169;44.492;11.372;2023-02-01T07:16:18;7.47;;;4.23;;
18084;SDS011;9169;44.492;11.372;2023-02-01T07:18:47;9.80;;;4.50;;
18084;SDS011;9169;44.492;11.372;2023-02-01T07:21:17;9.00;;;4.67;;
18084;SDS011;9169;44.492;11.372;2023-02-01T07:23:46;13.83;;;4.97;;
18084;SDS011;9169;44.492;11.372;2023-02-01T07:26:14;9.13;;;5.23;;
18084;SDS011;9169;44.492;11.372;2023-02-01T07:28:43;11.20;;;4.57;;
18084;SDS011;9169;44.492;11.372;2023-02-01T07:31:14;8.63;;;4.80;;
18084;SDS011;9169;44.492;11.372;2023-02-01T07:33:46;13.70;;;5.70;;
18084;SDS011;9169;44.492;11.372;2023-02-01T07:36:20;13.87;;;5.50;;
18084;SDS011;9169;44.492;11.372;2023-02-01T07:38:49;13.33;;;5.17;;
18084;SDS011;9169;44.492;11.372;2023-02-01T07:41:21;15.83;;;5.97;;
18084;SDS011;9169;44.492;11.372;2023-02-01T07:43:51;12.70;;;5.80;;
18084;SDS011;9169;44.492;11.372;2023-02-01T07:46:21;12.33;;;5.73;;
18084;SDS011;9169;44.492;11.372;2023-02-01T07:48:51;16.70;;;5.90;;
18084;SDS011;9169;44.492;11.372;2023-02-01T07:51:19;14.53;;;6.50;;
18084;SDS011;9169;44.492;11.372;2023-02-01T07:53:48;25.20;;;7.47;;
18084;SDS011;9169;44.492;11.372;2023-02-01T07:56:17;24.90;;;7.20;;
18084;SDS011;9169;44.492;11.372;2023-02-01T07:58:49;27.27;;;7.43;;
18084;SDS011;9169;44.492;11.372;2023-02-01T08:01:19;16.20;;;8.00;;
18084;SDS011;9169;44.492;11.372;2023-02-01T08:03:53;17.37;;;8.37;;
18084;SDS011;9169;44.492;11.372;2023-02-01T08:06:22;17.50;;;7.60;;
18084;SDS011;9169;44.492;11.372;2023-02-01T08:08:53;13.43;;;8.17;;
18084;SDS011;9169;44.492;11.372;2023-02-01T08:11:22;17.23;;;8.80;;
18084;SDS011;9169;44.492;11.372;2023-02-01T08:13:52;20.77;;;9.70;;
18084;SDS011;9169;44.492;11.372;2023-02-01T08:16:21;16.37;;;8.47;;
18084;SDS011;9169;44.492;11.372;2023-02-01T08:18:52;23.80;;;12.17;;
18084;SDS011;9169;44.492;11.372;2023-02-01T08:21:21;20.90;;;10.40;;
18084;SDS011;9169;44.492;11.372;2023-02-01T08:23:52;22.90;;;11.70;;
18084;SDS011;9169;44.492;11.372;2023-02-01T08:26:23;21.10;;;11.00;;
18084;SDS011;9169;44.492;11.372;2023-02-01T08:28:53;30.30;;;11.40;;
18084;SDS011;9169;44.492;11.372;2023-02-01T08:31:24;25.00;;;11.50;;
18084;SDS011;9169;44.492;11.372;2023-02-01T08:33:57;32.80;;;12.07;;
18084;SDS011;9169;44.492;11.372;2023-02-01T08:36:30;27.20;;;13.13;;
18084;SDS011;9169;44.492;11.372;2023-02-01T08:38:59;21.27;;;13.07;;
18084;SDS011;9169;44.492;11.372;2023-02-01T08:41:29;25.63;;;15.57;;
18084;SDS011;9169;44.492;11.372;2023-02-01T08:43:58;27.37;;;15.40;;
18084;SDS011;9169;44.492;11.372;2023-02-01T08:46:26;29.87;;;16.13;;
18084;SDS011;9169;44.492;11.372;2023-02-01T08:48:57;25.23;;;14.93;;
18084;SDS011;9169;44.492;11.372;2023-02-01T08:51:25;30.57;;;15.80;;
18084;SDS011;9169;44.492;11.372;2023-02-01T08:53:54;28.13;;;15.03;;
18084;SDS011;9169;44.492;11.372;2023-02-01T08:56:25;28.23;;;14.97;;
18084;SDS011;9169;44.492;11.372;2023-02-01T08:58:54;31.63;;;15.43;;
18084;SDS011;9169;44.492;11.372;2023-02-01T09:01:22;29.40;;;14.10;;
18084;SDS011;9169;44.492;11.372;2023-02-01T09:03:51;29.00;;;14.70;;
18084;SDS011;9169;44.492;11.372;2023-02-01T09:06:21;25.80;;;14.23;;
18084;SDS011;9169;44.492;11.372;2023-02-01T09:08:50;39.57;;;15.13;;
18084;SDS011;9169;44.492;11.372;2023-02-01T09:11:19;38.23;;;15.30;;
18084;SDS011;9169;44.492;11.372;2023-02-01T09:13:48;28.90;;;11.80;;
18084;SDS011;9169;44.492;11.372;2023-02-01T09:16:16;30.17;;;11.40;;
18084;SDS011;9169;44.492;11.372;2023-02-01T09:18:45;24.30;;;10.07;;
18084;SDS011;9169;44.492;11.372;2023-02-01T09:21:22;25.30;;;10.63;;
18084;SDS011;9169;44.492;11.372;2023-02-01T09:23:50;23.83;;;11.03;;
18084;SDS011;9169;44.492;11.372;2023-02-01T09:26:19;20.23;;;10.97;;
18084;SDS011;9169;44.492;11.372;2023-02-01T09:28:57;24.83;;;11.90;;
18084;SDS011;9169;44.492;11.372;2023-02-01T09:31:25;22.50;;;11.00;;
18084;SDS011;9169;44.492;11.372;2023-02-01T09:33:54;23.10;;;10.63;;
18084;SDS011;9169;44.492;11.372;2023-02-01T09:36:24;25.50;;;9.70;;
18084;SDS011;9169;44.492;11.372;2023-02-01T09:38:55;24.77;;;10.53;;
18084;SDS011;9169;44.492;11.372;2023-02-01T09:41:26;24.43;;;10.80;;
18084;SDS011;9169;44.492;11.372;2023-02-01T09:44:06;16.30;;;10.40;;
18084;SDS011;9169;44.492;11.372;2023-02-01T09:46:42;23.37;;;11.27;;
18084;SDS011;9169;44.492;11.372;2023-02-01T09:49:12;22.03;;;11.17;;
18084;SDS011;9169;44.492;11.372;2023-02-01T09:51:46;18.93;;;11.17;;
18084;SDS011;9169;44.492;11.372;2023-02-01T09:54:18;29.00;;;11.73;;
18084;SDS011;9169;44.492;11.372;2023-02-01T09:56:51;28.17;;;11.67;;
18084;SDS011;9169;44.492;11.372;2023-02-01T09:59:33;27.47;;;11.30;;
18084;SDS011;9169;44.492;11.372;2023-02-01T10:02:11;21.13;;;11.20;;
18084;SDS011;9169;44.492;11.372;2023-02-01T10:04:42;24.67;;;11.90;;
18084;SDS011;9169;44.492;11.372;2023-02-01T10:07:19;25.90;;;11.90;;
18084;SDS011;9169;44.492;11.372;2023-02-01T10:09:58;24.80;;;12.50;;
18084;SDS011;9169;44.492;11.372;2023-02-01T10:12:35;19.60;;;12.00;;
18084;SDS011;9169;44.492;11.372;2023-02-01T10:15:22;25.33;;;13.30;;
18084;SDS011;9169;44.492;11.372;2023-02-01T10:18:15;20.27;;;11.20;;
18084;SDS011;9169;44.492;11.372;2023-02-01T10:20:53;23.73;;;13.93;;
18084;SDS011;9169;44.492;11.372;2023-02-01T10:23:32;22.33;;;12.30;;
18084;SDS011;9169;44.492;11.372;2023-02-01T10:26:21;21.30;;;12.50;;
18084;SDS011;9169;44.492;11.372;2023-02-01T10:28:52;29.47;;;13.13;;
18084;SDS011;9169;44.492;11.372;2023-02-01T10:31:22;28.73;;;13.80;;
18084;SDS011;9169;44.492;11.372;2023-02-01T10:33:56;26.93;;;13.47;;
18084;SDS011;9169;44.492;11.372;2023-02-01T10:36:28;25.83;;;14.00;;
18084;SDS011;9169;44.492;11.372;2023-02-01T10:39:00;33.77;;;15.20;;
18084;SDS011;9169;44.492;11.372;2023-02-01T10:41:31;30.93;;;15.60;;
18084;SDS011;9169;44.492;11.372;2023-02-01T10:44:03;25.70;;;14.27;;
18084;SDS011;9169;44.492;11.372;2023-02-01T10:46:37;37.83;;;17.63;;
18084;SDS011;9169;44.492;11.372;2023-02-01T10:49:09;31.80;;;19.23;;
18084;SDS011;9169;44.492;11.372;2023-02-01T10:51:45;34.37;;;18.90;;
18084;SDS011;9169;44.492;11.372;2023-02-01T10:54:20;37.00;;;19.50;;
18084;SDS011;9169;44.492;11.372;2023-02-01T10:56:59;33.83;;;20.43;;
18084;SDS011;9169;44.492;11.372;2023-02-01T10:59:28;32.20;;;19.37;;
18084;SDS011;9169;44.492;11.372;2023-02-01T11:01:59;38.80;;;21.17;;
18084;SDS011;9169;44.492;11.372;2023-02-01T11:04:30;29.27;;;18.53;;
18084;SDS011;9169;44.492;11.372;2023-02-01T11:07:05;32.37;;;18.07;;
18084;SDS011;9169;44.492;11.372;2023-02-01T11:09:40;33.60;;;19.60;;
18084;SDS011;9169;44.492;11.372;2023-02-01T11:12:20;25.63;;;17.60;;
18084;SDS011;9169;44.492;11.372;2023-02-01T11:14:57;32.00;;;18.47;;
18084;SDS011;9169;44.492;11.372;2023-02-01T11:17:33;28.67;;;17.30;;
18084;SDS011;9169;44.492;11.372;2023-02-01T11:20:04;28.10;;;16.30;;
18084;SDS011;9169;44.492;11.372;2023-02-01T11:22:45;22.20;;;14.70;;
18084;SDS011;9169;44.492;11.372;2023-02-01T11:25:16;26.50;;;15.70;;
18084;SDS011;9169;44.492;11.372;2023-02-01T11:27:46;23.80;;;14.47;;
18084;SDS011;9169;44.492;11.372;2023-02-01T11:30:24;24.23;;;14.90;;
18084;SDS011;9169;44.492;11.372;2023-02-01T11:33:00;28.70;;;16.13;;
18084;SDS011;9169;44.492;11.372;2023-02-01T11:35:32;25.47;;;15.60;;
18084;SDS011;9169;44.492;11.372;2023-02-01T11:38:09;22.97;;;15.40;;
18084;SDS011;9169;44.492;11.372;2023-02-01T11:40:41;20.67;;;12.87;;
18084;SDS011;9169;44.492;11.372;2023-02-01T11:43:13;25.57;;;14.23;;
18084;SDS011;9169;44.492;11.372;2023-02-01T11:45:53;24.90;;;16.33;;
18084;SDS011;9169;44.492;11.372;2023-02-01T11:48:24;22.70;;;14.40;;
18084;SDS011;9169;44.492;11.372;2023-02-01T11:51:00;24.60;;;13.80;;
18084;SDS011;9169;44.492;11.372;2023-02-01T11:53:56;21.47;;;13.43;;
18084;SDS011;9169;44.492;11.372;2023-02-01T11:56:37;24.20;;;14.70;;
18084;SDS011;9169;44.492;11.372;2023-02-01T11:59:18;24.77;;;13.83;;
18084;SDS011;9169;44.492;11.372;2023-02-01T12:02:03;23.93;;;14.80;;
18084;SDS011;9169;44.492;11.372;2023-02-01T12:05:06;26.20;;;15.63;;
18084;SDS011;9169;44.492;11.372;2023-02-01T12:07:50;22.17;;;14.70;;
18084;SDS011;9169;44.492;11.372;2023-02-01T12:10:33;25.47;;;17.40;;
18084;SDS011;9169;44.492;11.372;2023-02-01T12:13:17;27.30;;;15.70;;
18084;SDS011;9169;44.492;11.372;2023-02-01T12:15:59;26.47;;;15.70;;
18084;SDS011;9169;44.492;11.372;2023-02-01T12:18:48;25.17;;;16.20;;
18084;SDS011;9169;44.492;11.372;2023-02-01T12:21:34;29.63;;;15.17;;
18084;SDS011;9169;44.492;11.372;2023-02-01T12:24:28;24.27;;;16.93;;
18084;SDS011;9169;44.492;11.372;2023-02-01T12:27:14;37.00;;;18.90;;
18084;SDS011;9169;44.492;11.372;2023-02-01T12:30:13;25.70;;;17.13;;
18084;SDS011;9169;44.492;11.372;2023-02-01T12:33:02;41.50;;;18.77;;
18084;SDS011;9169;44.492;11.372;2023-02-01T12:35:41;29.43;;;18.47;;
18084;SDS011;9169;44.492;11.372;2023-02-01T12:38:24;25.70;;;17.87;;
18084;SDS011;9169;44.492;11.372;2023-02-01T12:41:08;26.07;;;17.50;;
18084;SDS011;9169;44.492;11.372;2023-02-01T12:43:45;24.43;;;16.13;;
18084;SDS011;9169;44.492;11.372;2023-02-01T12:46:19;25.87;;;14.20;;
18084;SDS011;9169;44.492;11.372;2023-02-01T12:48:54;21.10;;;14.23;;
18084;SDS011;9169;44.492;11.372;2023-02-01T12:51:27;25.30;;;15.53;;
18084;SDS011;9169;44.492;11.372;2023-02-01T12:54:00;19.40;;;14.17;;
18084;SDS011;9169;44.492;11.372;2023-02-01T12:56:40;23.20;;;15.17;;
18084;SDS011;9169;44.492;11.372;2023-02-01T12:59:16;23.77;;;14.20;;
18084;SDS011;9169;44.492;11.372;2023-02-01T13:01:52;22.57;;;14.87;;
18084;SDS011;9169;44.492;11.372;2023-02-01T13:04:27;23.97;;;15.20;;
18084;SDS011;9169;44.492;11.372;2023-02-01T13:07:01;22.80;;;15.17;;
18084;SDS011;9169;44.492;11.372;2023-02-01T13:09:37;20.33;;;14.00;;
18084;SDS011;9169;44.492;11.372;2023-02-01T13:12:12;22.10;;;13.73;;
18084;SDS011;9169;44.492;11.372;2023-02-01T13:14:44;19.40;;;13.23;;
18084;SDS011;9169;44.492;11.372;2023-02-01T13:17:20;20.97;;;12.83;;
18084;SDS011;9169;44.492;11.372;2023-02-01T13:19:56;20.10;;;13.13;;
18084;SDS011;9169;44.492;11.372;2023-02-01T13:22:31;19.63;;;13.40;;
18084;SDS011;9169;44.492;11.372;2023-02-01T13:25:03;18.33;;;12.10;;
18084;SDS011;9169;44.492;11.372;2023-02-01T13:27:38;27.53;;;13.90;;
18084;SDS011;9169;44.492;11.372;2023-02-01T13:30:11;20.77;;;12.90;;
18084;SDS011;9169;44.492;11.372;2023-02-01T13:33:02;24.70;;;15.07;;
18084;SDS011;9169;44.492;11.372;2023-02-01T13:36:05;19.87;;;13.07;;
18084;SDS011;9169;44.492;11.372;2023-02-01T13:39:02;24.73;;;13.30;;
18084;SDS011;9169;44.492;11.372;2023-02-01T13:42:00;26.50;;;13.20;;
18084;SDS011;9169;44.492;11.372;2023-02-01T13:44:31;19.40;;;12.73;;
18084;SDS011;9169;44.492;11.372;2023-02-01T13:47:11;21.93;;;13.23;;
18084;SDS011;9169;44.492;11.372;2023-02-01T13:49:47;18.07;;;12.77;;
18084;SDS011;9169;44.492;11.372;2023-02-01T13:52:23;28.77;;;13.70;;
18084;SDS011;9169;44.492;11.372;2023-02-01T13:55:02;19.50;;;13.00;;
18084;SDS011;9169;44.492;11.372;2023-02-01T13:57:42;19.63;;;13.40;;
18084;SDS011;9169;44.492;11.372;2023-02-01T14:00:25;19.50;;;14.10;;
18084;SDS011;9169;44.492;11.372;2023-02-01T14:06:03;16.80;;;12.90;;
18084;SDS011;9169;44.492;11.372;2023-02-01T14:08:46;17.93;;;13.30;;
18084;SDS011;9169;44.492;11.372;2023-02-01T14:11:32;31.23;;;13.97;;
18084;SDS011;9169;44.492;11.372;2023-02-01T14:23:22;24.70;;;12.37;;
18084;SDS011;9169;44.492;11.372;2023-02-01T14:26:05;23.30;;;12.33;;
18084;SDS011;9169;44.492;11.372;2023-02-01T14:28:38;21.37;;;12.33;;
18084;SDS011;9169;44.492;11.372;2023-02-01T14:31:14;19.43;;;12.40;;
18084;SDS011;9169;44.492;11.372;2023-02-01T14:33:53;20.37;;;13.00;;
18084;SDS011;9169;44.492;11.372;2023-02-01T14:36:38;22.90;;;13.97;;
18084;SDS011;9169;44.492;11.372;2023-02-01T14:42:03;31.23;;;20.07;;
18084;SDS011;9169;44.492;11.372;2023-02-01T14:44:35;16.97;;;12.37;;
18084;SDS011;9169;44.492;11.372;2023-02-01T14:47:05;20.90;;;12.80;;
18084;SDS011;9169;44.492;11.372;2023-02-01T14:53:06;22.30;;;13.87;;
18084;SDS011;9169;44.492;11.372;2023-02-01T14:55:45;23.50;;;13.10;;
18084;SDS011;9169;44.492;11.372;2023-02-01T14:58:23;21.57;;;12.63;;
18084;SDS011;9169;44.492;11.372;2023-02-01T15:01:01;23.93;;;13.10;;
18084;SDS011;9169;44.492;11.372;2023-02-01T15:03:36;20.80;;;12.40;;
18084;SDS011;9169;44.492;11.372;2023-02-01T15:06:20;25.23;;;13.43;;
18084;SDS011;9169;44.492;11.372;2023-02-01T15:08:56;19.70;;;12.17;;
18084;SDS011;9169;44.492;11.372;2023-02-01T15:11:29;19.77;;;13.13;;
18084;SDS011;9169;44.492;11.372;2023-02-01T15:13:57;20.50;;;13.30;;
18084;SDS011;9169;44.492;11.372;2023-02-01T15:16:27;22.37;;;13.47;;
18084;SDS011;9169;44.492;11.372;2023-02-01T15:21:45;24.67;;;12.20;;
18084;SDS011;9169;44.492;11.372;2023-02-01T15:24:18;18.97;;;12.60;;
18084;SDS011;9169;44.492;11.372;2023-02-01T15:26:51;25.13;;;14.03;;
18084;SDS011;9169;44.492;11.372;2023-02-01T15:29:21;25.27;;;13.67;;
18084;SDS011;9169;44.492;11.372;2023-02-01T15:31:54;26.00;;;13.53;;
18084;SDS011;9169;44.492;11.372;2023-02-01T15:34:23;22.67;;;13.87;;
18084;SDS011;9169;44.492;11.372;2023-02-01T15:37:11;32.73;;;14.80;;